Time;durP1;ratioP1;P1;durP2;ratioP2;P2;SDS_P1;SDS_P2;PMS_P1;PMS_P2;Temp;Humidity;BMP_temperature;BMP_pressure;BME280_temperature;BME280_humidity;BME280_pressure;Samples;Min_cycle;Max_cycle;Signal;HPM_P1;HPM_P2
2021/09/11 00:01:19;;;;;;;6.97;3.60;;;;;;;17.21;87.22;101566.44;6179007;23;20020;-79
2021/09/11 00:03:45;;;;;;;7.25;4.18;;;;;;;17.24;87.19;101560.25;6184770;23;20064;-78
2021/09/11 00:06:11;;;;;;;8.73;4.13;;;;;;;17.21;87.51;101554.94;6184383;23;20001;-78
2021/09/11 00:08:36;;;;;;;10.88;4.75;;;;;;;17.27;87.36;101554.94;6184863;23;20008;-79
2021/09/11 00:11:04;;;;;;;8.55;4.93;;;;;;;17.30;87.51;101549.63;6184587;23;20076;-78
2021/09/11 00:13:29;;;;;;;8.13;4.68;;;;;;;17.33;87.43;101549.63;6185028;23;20420;-78
2021/09/11 00:16:35;;;;;;;7.85;4.63;;;;;;;17.33;87.29;101549.63;6184974;23;20011;-79
2021/09/11 00:19:00;;;;;;;12.75;5.25;;;;;;;17.30;87.32;101553.16;6183817;23;20009;-79
2021/09/11 00:21:46;;;;;;;11.93;5.47;;;;;;;17.31;87.25;101552.28;6184494;23;20016;-77
2021/09/11 00:24:11;;;;;;;12.40;5.18;;;;;;;17.31;87.95;101556.72;6183822;23;20009;-78
2021/09/11 00:26:38;;;;;;;13.48;5.60;;;;;;;17.32;87.51;101554.06;6184632;23;20001;-77
2021/09/11 00:29:03;;;;;;;15.45;4.93;;;;;;;17.30;87.89;101554.94;6183571;23;20032;-78
2021/09/11 00:31:29;;;;;;;8.90;5.55;;;;;;;17.25;88.55;101559.38;6184693;23;20004;-78
2021/09/11 00:33:54;;;;;;;12.38;5.47;;;;;;;17.21;88.78;101565.59;6183895;23;20068;-77
2021/09/11 00:36:19;;;;;;;14.13;6.65;;;;;;;17.21;88.78;101560.25;6183384;23;20076;-78
2021/09/11 00:38:45;;;;;;;13.55;4.75;;;;;;;17.23;88.54;101559.38;6184546;23;20013;-78
2021/09/11 00:41:10;;;;;;;11.13;5.18;;;;;;;17.27;88.72;101554.94;6184261;23;20122;-78
2021/09/11 00:43:45;;;;;;;11.18;5.00;;;;;;;17.28;88.54;101556.72;6184551;23;20000;-76
2021/09/11 00:46:30;;;;;;;18.17;6.78;;;;;;;17.31;88.96;101551.41;6184394;23;20081;-78
2021/09/11 00:48:59;;;;;;;12.80;6.97;;;;;;;17.35;88.84;101555.84;6183987;23;20012;-78
2021/09/11 00:51:45;;;;;;;14.32;6.35;;;;;;;17.42;88.46;101541.63;6184009;23;20016;-78
2021/09/11 00:54:11;;;;;;;11.40;7.63;;;;;;;17.48;88.01;101549.59;6183717;23;20029;-79
2021/09/11 00:56:57;;;;;;;11.63;7.68;;;;;;;17.52;87.76;101551.38;6184557;23;20071;-78
2021/09/11 00:59:22;;;;;;;15.43;8.52;;;;;;;17.55;87.50;101550.47;6183691;23;20013;-78
2021/09/11 01:01:47;;;;;;;19.05;9.15;;;;;;;17.58;87.52;101554.91;6153595;23;20090;-78
2021/09/11 01:04:13;;;;;;;16.67;8.43;;;;;;;17.57;87.54;101547.84;6185648;23;20001;-77
2021/09/11 01:06:39;;;;;;;16.20;8.77;;;;;;;17.58;87.34;101550.50;6186300;23;20013;-78
2021/09/11 01:09:04;;;;;;;15.65;8.10;;;;;;;17.61;87.38;101557.59;6186016;23;20001;-77
2021/09/11 01:11:30;;;;;;;17.98;8.30;;;;;;;17.60;87.10;101558.47;6186052;23;20413;-78
2021/09/11 01:13:58;;;;;;;17.27;8.88;;;;;;;17.61;87.07;101554.94;6187123;23;20001;-79
2021/09/11 01:16:25;;;;;;;14.27;8.02;;;;;;;17.65;87.05;101556.72;6186704;23;20252;-78
2021/09/11 01:18:50;;;;;;;14.45;7.72;;;;;;;17.65;87.22;101556.72;6186256;23;20013;-78
2021/09/11 01:21:15;;;;;;;15.43;7.50;;;;;;;17.61;87.34;101554.94;6185416;23;20032;-78
2021/09/11 01:23:41;;;;;;;15.13;8.15;;;;;;;17.63;87.46;101555.81;6186034;23;20017;-78
2021/09/11 01:26:07;;;;;;;16.65;8.00;;;;;;;17.64;86.90;101554.94;6186029;23;20001;-77
2021/09/11 01:28:32;;;;;;;16.25;8.30;;;;;;;17.63;87.29;101548.69;6185807;23;20079;-79
2021/09/11 01:30:58;;;;;;;18.17;8.45;;;;;;;17.58;87.26;101552.25;6185803;23;20072;-79
2021/09/11 01:33:24;;;;;;;11.82;8.05;;;;;;;17.58;87.47;101549.59;6185866;23;20096;-78
2021/09/11 01:35:53;;;;;;;13.70;7.32;;;;;;;17.62;87.37;101557.59;6186177;23;20001;-78
2021/09/11 01:38:18;;;;;;;14.35;7.93;;;;;;;17.61;87.32;101558.47;6186132;23;20140;-79
2021/09/11 01:40:44;;;;;;;18.58;8.00;;;;;;;17.60;87.46;101558.47;6185309;23;20420;-77
2021/09/11 01:43:09;;;;;;;18.00;8.13;;;;;;;17.62;87.10;101556.69;6185301;23;20011;-78
2021/09/11 01:45:35;;;;;;;19.77;8.93;;;;;;;17.63;86.88;101559.34;6185785;23;20437;-76
2021/09/11 01:48:00;;;;;;;17.17;9.75;;;;;;;17.63;86.99;101551.34;6185285;23;20087;-80
2021/09/11 01:50:26;;;;;;;14.15;9.23;;;;;;;17.63;87.11;101558.47;6186421;23;19997;-79
2021/09/11 01:52:52;;;;;;;16.67;9.43;;;;;;;17.62;87.42;101562.00;6185319;23;20087;-78
2021/09/11 01:55:20;;;;;;;18.92;9.55;;;;;;;17.64;87.33;101560.25;6185782;23;20005;-77
2021/09/11 01:57:46;;;;;;;15.00;8.77;;;;;;;17.59;87.87;101559.38;6185628;23;20349;-79
2021/09/11 02:00:14;;;;;;;14.32;7.93;;;;;;;17.61;87.99;101560.25;6180125;23;20013;-79
2021/09/11 02:02:40;;;;;;;22.00;9.75;;;;;;;17.62;88.16;101570.00;6185833;23;20009;-79
2021/09/11 02:05:20;;;;;;;20.67;10.25;;;;;;;17.61;87.70;101555.81;6185927;23;20009;-79
2021/09/11 02:07:46;;;;;;;19.23;11.35;;;;;;;17.59;88.56;101559.38;6160068;23;20341;-76
2021/09/11 02:10:21;;;;;;;19.10;10.73;;;;;;;17.56;89.00;101560.25;6185634;23;20009;-77
2021/09/11 02:12:46;;;;;;;21.52;11.23;;;;;;;17.51;89.21;101565.59;6186241;23;20009;-78
2021/09/11 02:15:32;;;;;;;22.65;11.48;;;;;;;17.48;89.57;101570.88;6185452;23;20016;-78
2021/09/11 02:17:57;;;;;;;18.92;12.35;;;;;;;17.45;90.12;101565.56;6186337;23;20013;-79
2021/09/11 02:20:23;;;;;;;20.98;12.65;;;;;;;17.43;90.39;101567.38;6185744;23;20011;-79
2021/09/11 02:22:48;;;;;;;27.83;14.35;;;;;;;17.35;90.77;101563.81;6185788;23;20463;-78
2021/09/11 02:25:14;;;;;;;21.98;13.55;;;;;;;17.35;90.89;101570.03;6184762;23;20005;-78
2021/09/11 02:27:40;;;;;;;23.58;13.00;;;;;;;17.35;91.32;101567.34;6185323;23;20005;-79
2021/09/11 02:30:06;;;;;;;20.00;13.15;;;;;;;17.40;91.00;101569.13;6184959;23;20059;-79
2021/09/11 02:32:32;;;;;;;29.50;13.18;;;;;;;17.35;90.91;101569.16;6159298;23;20016;-79
2021/09/11 02:34:57;;;;;;;31.95;12.65;;;;;;;17.36;91.59;101562.91;6159077;23;20008;-80
2021/09/11 02:37:23;;;;;;;26.20;13.30;;;;;;;17.35;91.77;101561.16;6185442;23;20012;-78
2021/09/11 02:39:48;;;;;;;24.30;14.20;;;;;;;17.33;91.58;101565.59;6184967;23;20009;-78
2021/09/11 02:42:13;;;;;;;23.55;12.65;;;;;;;17.34;91.90;101564.69;6184569;23;20008;-79
2021/09/11 02:44:39;;;;;;;23.98;13.23;;;;;;;17.34;91.79;101559.38;6185515;23;20495;-79
2021/09/11 02:47:24;;;;;;;23.77;12.82;;;;;;;17.32;91.80;101559.38;6159205;23;20009;-77
2021/09/11 02:49:50;;;;;;;26.65;13.35;;;;;;;17.34;91.50;101557.59;6184687;23;20439;-78
2021/09/11 02:52:15;;;;;;;22.65;12.75;;;;;;;17.32;92.03;101563.81;6184441;23;20020;-81
2021/09/11 02:54:40;;;;;;;22.55;12.10;;;;;;;17.31;92.11;101557.59;6185198;23;20032;-79
2021/09/11 02:57:06;;;;;;;23.63;13.20;;;;;;;17.31;92.17;101556.72;6184625;23;20027;-78
2021/09/11 02:59:31;;;;;;;20.98;11.93;;;;;;;17.34;91.73;101548.75;6185693;23;20013;-79
2021/09/11 03:01:57;;;;;;;24.48;12.60;;;;;;;17.32;92.11;101553.16;6179801;23;20005;-78
2021/09/11 03:04:22;;;;;;;19.17;11.27;;;;;;;17.34;92.06;101552.28;6183394;23;20031;-79
2021/09/11 03:06:47;;;;;;;29.05;13.02;;;;;;;17.29;92.72;101548.72;6184616;23;20136;-80
2021/09/11 03:09:13;;;;;;;21.55;12.43;;;;;;;17.27;93.04;101549.59;6185106;23;20028;-77
2021/09/11 03:11:38;;;;;;;24.00;12.80;;;;;;;17.26;93.08;101547.84;6158388;23;20009;-77
2021/09/11 03:14:04;;;;;;;28.48;13.27;;;;;;;17.23;93.05;101551.41;6183905;23;20006;-78
2021/09/11 03:16:29;;;;;;;33.58;13.10;;;;;;;17.21;93.29;101547.84;6184846;23;20004;-77
2021/09/11 03:18:55;;;;;;;30.40;13.07;;;;;;;17.24;93.32;101562.91;6184712;23;20035;-79
2021/09/11 03:21:20;;;;;;;33.60;13.60;;;;;;;17.23;93.22;101556.72;6183589;23;20023;-76
2021/09/11 03:23:46;;;;;;;31.60;14.15;;;;;;;17.21;93.61;101560.25;6185150;23;20024;-77
2021/09/11 03:26:11;;;;;;;24.33;13.98;;;;;;;17.15;93.98;101556.72;6184531;23;20099;-80
2021/09/11 03:28:37;;;;;;;28.10;13.52;;;;;;;17.15;94.09;101562.03;6183652;23;20005;-78
2021/09/11 03:31:02;;;;;;;32.85;13.93;;;;;;;17.15;93.84;101558.50;6184131;23;20047;-77
2021/09/11 03:33:27;;;;;;;25.13;12.85;;;;;;;17.15;93.62;101551.38;6184759;23;20078;-78
2021/09/11 03:35:53;;;;;;;33.30;13.35;;;;;;;17.20;93.63;101559.38;6184319;23;20012;-77
2021/09/11 03:38:18;;;;;;;33.75;13.50;;;;;;;17.21;93.26;101549.63;6184414;23;20013;-78
2021/09/11 03:40:44;;;;;;;35.03;14.30;;;;;;;17.18;93.78;101551.38;6184701;23;20060;-78
2021/09/11 03:43:09;;;;;;;29.05;12.32;;;;;;;17.27;93.58;101549.59;6184691;23;20017;-78
2021/09/11 03:45:34;;;;;;;25.30;13.15;;;;;;;17.28;92.84;101552.28;6184154;23;20035;-79
2021/09/11 03:48:00;;;;;;;21.80;12.48;;;;;;;17.24;93.55;101554.94;6184714;23;20000;-79
2021/09/11 03:50:45;;;;;;;28.02;14.35;;;;;;;17.22;93.50;101552.28;6184095;23;20540;-79
2021/09/11 03:53:11;;;;;;;25.33;12.40;;;;;;;17.22;93.31;101552.28;6137591;23;20009;-79
2021/09/11 03:55:36;;;;;;;33.33;14.63;;;;;;;17.26;92.94;101558.50;6184115;23;20009;-79
2021/09/11 03:58:02;;;;;;;23.13;12.38;;;;;;;17.27;92.88;101553.19;6184603;23;20020;-79
2021/09/11 04:00:27;;;;;;;33.13;14.73;;;;;;;17.25;93.08;101556.72;6179099;23;19997;-77
2021/09/11 04:02:52;;;;;;;30.75;13.75;;;;;;;17.26;93.15;101561.16;6184045;23;20009;-77
2021/09/11 04:05:38;;;;;;;25.20;13.57;;;;;;;17.25;92.96;101562.03;6157890;23;20433;-77
2021/09/11 04:08:03;;;;;;;27.92;15.57;;;;;;;17.19;93.38;101563.81;6184215;23;20005;-77
2021/09/11 04:10:29;;;;;;;31.20;14.10;;;;;;;17.19;93.33;101563.81;6184064;23;20383;-78
2021/09/11 04:12:54;;;;;;;29.83;15.95;;;;;;;17.20;93.40;101559.38;6184095;23;20005;-77
2021/09/11 04:15:20;;;;;;;28.35;16.42;;;;;;;17.17;93.53;101557.59;6157705;23;20084;-78
2021/09/11 04:18:01;;;;;;;34.53;15.90;;;;;;;17.20;93.80;101559.38;6158211;23;20341;-78
2021/09/11 04:20:26;;;;;;;30.40;15.27;;;;;;;17.21;93.39;101550.50;6183971;23;20020;-79
2021/09/11 04:22:52;;;;;;;25.25;16.23;;;;;;;17.18;93.71;101555.81;6183805;23;20025;-78
2021/09/11 04:25:17;;;;;;;26.58;15.73;;;;;;;17.19;93.27;101557.59;6183735;23;20063;-78
2021/09/11 04:27:43;;;;;;;34.95;17.02;;;;;;;17.15;94.00;101562.03;6184645;23;20001;-78
2021/09/11 04:30:28;;;;;;;32.78;17.08;;;;;;;17.19;93.56;101552.28;6183250;23;20005;-77
2021/09/11 04:32:53;;;;;;;28.75;17.17;;;;;;;17.14;94.28;101557.59;6184115;23;20380;-78
2021/09/11 04:35:19;;;;;;;27.40;16.30;;;;;;;17.07;94.66;101558.47;6184142;23;20032;-78
2021/09/11 04:37:44;;;;;;;36.17;18.30;;;;;;;16.99;95.46;101562.91;6186155;23;20005;-78
2021/09/11 04:40:10;;;;;;;31.15;18.23;;;;;;;16.95;95.94;101567.31;6185969;23;20016;-80
2021/09/11 04:42:36;;;;;;;32.63;19.35;;;;;;;16.83;97.38;101570.81;6160410;23;20009;-82
2021/09/11 04:45:05;;;;;;;34.38;19.25;;;;;;;16.70;98.03;101574.31;6187175;23;20021;-82
2021/09/11 04:47:30;;;;;;;34.47;18.42;;;;;;;16.68;98.46;101576.06;6186537;23;20005;-81
2021/09/11 04:49:56;;;;;;;36.75;21.15;;;;;;;16.65;99.11;101576.06;6185674;23;20080;-82
2021/09/11 04:52:21;;;;;;;42.40;21.25;;;;;;;16.63;99.17;101568.09;6186392;23;20012;-79
2021/09/11 04:54:47;;;;;;;37.58;21.02;;;;;;;16.59;99.55;101576.94;6186335;23;20009;-80
2021/09/11 04:57:12;;;;;;;48.72;22.85;;;;;;;16.58;99.29;101563.66;6160901;23;20416;-82
2021/09/11 04:59:38;;;;;;;41.85;22.08;;;;;;;16.57;99.88;101569.84;6185526;23;20491;-81
2021/09/11 05:02:04;;;;;;;41.33;21.88;;;;;;;16.59;99.85;101576.03;6182280;23;20009;-83
2021/09/11 05:04:29;;;;;;;42.08;20.98;;;;;;;16.57;99.74;101577.81;6187442;23;20324;-81
2021/09/11 05:07:17;;;;;;;41.65;22.65;;;;;;;16.54;99.84;101572.50;6187830;23;20012;-79
2021/09/11 05:09:42;;;;;;;39.42;20.60;;;;;;;16.59;100.00;101570.72;6161282;23;20039;-80
2021/09/11 05:12:08;;;;;;;43.72;21.83;;;;;;;16.57;100.00;101575.16;6187203;23;19997;-81
2021/09/11 05:14:33;;;;;;;30.55;17.88;;;;;;;16.59;99.94;101576.03;6186751;23;20016;-79
2021/09/11 05:16:59;;;;;;;44.78;22.63;;;;;;;16.59;99.86;101576.03;6187753;23;20012;-80
2021/09/11 05:19:24;;;;;;;39.85;20.38;;;;;;;16.56;100.00;101578.69;6188122;23;20405;-82
2021/09/11 05:22:10;;;;;;;43.05;22.85;;;;;;;16.62;100.00;101581.38;6186778;23;20013;-83
2021/09/11 05:24:35;;;;;;;35.50;20.67;;;;;;;16.62;100.00;101576.06;6184815;23;20008;-79
2021/09/11 05:27:01;;;;;;;44.28;21.20;;;;;;;16.63;100.00;101585.78;6186719;23;20035;-81
2021/09/11 05:29:26;;;;;;;45.33;21.60;;;;;;;16.66;100.00;101580.50;6185965;23;20380;-82
2021/09/11 05:32:00;;;;;;;38.72;21.55;;;;;;;16.68;99.87;101582.31;6186267;23;20005;-80
2021/09/11 05:34:25;;;;;;;44.08;22.48;;;;;;;16.67;99.72;101575.19;6159723;23;20017;-79
2021/09/11 05:36:51;;;;;;;33.67;20.15;;;;;;;16.71;100.00;101570.75;6186930;23;20079;-79
2021/09/11 05:39:17;;;;;;;42.75;24.98;;;;;;;16.71;99.82;101576.06;6186121;23;20433;-80
2021/09/11 05:41:43;;;;;;;47.78;23.52;;;;;;;16.71;99.90;101576.06;6185209;23;20500;-81
2021/09/11 05:44:08;;;;;;;44.67;21.60;;;;;;;16.75;99.84;101582.31;6185320;23;20031;-80
2021/09/11 05:46:34;;;;;;;41.92;23.42;;;;;;;16.74;100.00;101583.19;6186253;23;20001;-79
2021/09/11 05:48:59;;;;;;;37.03;21.35;;;;;;;16.75;100.00;101588.50;6186058;23;20024;-81
2021/09/11 05:51:25;;;;;;;39.83;23.33;;;;;;;16.76;100.00;101598.25;6185860;23;20008;-79
2021/09/11 05:53:50;;;;;;;49.38;24.40;;;;;;;16.77;100.00;101594.72;6186757;23;20306;-79
2021/09/11 05:56:16;;;;;;;40.75;22.55;;;;;;;16.82;99.98;101598.28;6184737;23;20001;-79
2021/09/11 05:58:41;;;;;;;44.13;24.83;;;;;;;16.80;100.00;101601.81;6184306;23;20059;-79
2021/09/11 06:01:06;;;;;;;44.97;21.85;;;;;;;16.81;100.00;101609.78;6179469;23;20056;-79
2021/09/11 06:03:33;;;;;;;42.85;20.30;;;;;;;16.83;99.66;101612.44;6184732;23;20064;-81
2021/09/11 06:05:59;;;;;;;39.17;21.88;;;;;;;16.86;99.90;101616.00;6183838;23;20008;-79
2021/09/11 06:08:25;;;;;;;31.42;18.98;;;;;;;16.91;99.89;101620.47;6184440;23;20008;-81
2021/09/11 06:10:51;;;;;;;41.60;20.33;;;;;;;16.92;98.99;101616.94;6185390;23;20035;-81
2021/09/11 06:13:16;;;;;;;33.15;20.33;;;;;;;16.91;99.03;101620.47;6185365;23;20005;-82
2021/09/11 06:15:42;;;;;;;42.22;22.02;;;;;;;16.95;98.99;101615.16;6188648;23;20012;-81
2021/09/11 06:18:07;;;;;;;37.25;21.92;;;;;;;16.95;98.74;101624.94;6186470;23;20005;-80
2021/09/11 06:20:33;;;;;;;43.38;20.88;;;;;;;16.97;99.09;101636.44;6185235;23;20079;-80
2021/09/11 06:22:58;;;;;;;44.35;22.77;;;;;;;16.95;98.80;101627.59;6185556;23;20017;-80
2021/09/11 06:25:24;;;;;;;38.90;23.25;;;;;;;16.96;98.61;101629.38;6158716;23;20004;-78
2021/09/11 06:27:54;;;;;;;48.33;23.42;;;;;;;16.97;98.95;101629.38;6185362;23;20009;-79
2021/09/11 06:30:20;;;;;;;44.08;21.13;;;;;;;17.04;98.66;101635.59;6185885;23;20072;-79
2021/09/11 06:32:45;;;;;;;42.17;22.73;;;;;;;17.03;98.67;101626.69;6186358;23;20009;-79
2021/09/11 06:35:11;;;;;;;36.50;21.77;;;;;;;17.04;98.33;101630.28;6185644;23;20036;-80
2021/09/11 06:37:36;;;;;;;48.30;23.27;;;;;;;17.00;98.69;101625.84;6184608;23;20061;-79
2021/09/11 06:40:03;;;;;;;41.50;22.88;;;;;;;17.01;98.82;101632.91;6184867;23;20088;-78
2021/09/11 06:42:28;;;;;;;40.60;22.45;;;;;;;17.02;98.53;101626.69;6185335;23;20084;-78
2021/09/11 06:45:09;;;;;;;38.55;21.65;;;;;;;17.05;98.63;101640.03;6184250;23;20025;-80
2021/09/11 06:47:34;;;;;;;46.15;23.25;;;;;;;17.07;99.05;101642.69;6185316;23;20009;-78
2021/09/11 06:50:00;;;;;;;38.97;22.08;;;;;;;17.11;98.60;101644.47;6184526;23;20005;-78
2021/09/11 06:52:28;;;;;;;36.90;20.63;;;;;;;17.12;98.50;101636.50;6185116;23;20007;-81
2021/09/11 06:54:54;;;;;;;38.60;20.70;;;;;;;17.18;98.38;101646.25;6158584;23;20488;-80
2021/09/11 06:57:19;;;;;;;48.38;22.65;;;;;;;17.18;98.63;101647.13;6185120;23;20047;-80
2021/09/11 06:59:45;;;;;;;38.50;21.90;;;;;;;17.21;98.89;101650.69;6185175;23;20028;-80
2021/09/11 07:02:10;;;;;;;42.05;21.38;;;;;;;17.28;98.66;101644.50;6154945;23;20016;-78
2021/09/11 07:04:36;;;;;;;40.75;21.05;;;;;;;17.31;98.08;101647.19;6158308;23;20005;-78
2021/09/11 07:07:01;;;;;;;40.42;20.08;;;;;;;17.30;98.12;101646.28;6184725;23;20203;-79
2021/09/11 07:09:27;;;;;;;35.88;19.60;;;;;;;17.34;97.93;101652.50;6185970;23;20008;-78
2021/09/11 07:11:52;;;;;;;42.85;21.98;;;;;;;17.34;97.88;101657.81;6186119;23;20021;-79
2021/09/11 07:14:18;;;;;;;39.22;21.67;;;;;;;17.32;98.22;101654.25;6184220;23;20067;-77
2021/09/11 07:16:44;;;;;;;39.78;21.33;;;;;;;17.36;97.92;101661.34;6184716;23;20012;-77
2021/09/11 07:19:29;;;;;;;44.80;20.85;;;;;;;17.43;97.80;101652.50;6183815;23;20001;-77
2021/09/11 07:21:56;;;;;;;37.65;19.00;;;;;;;17.52;97.47;101657.81;6184591;23;20020;-77
2021/09/11 07:24:41;;;;;;;34.75;18.83;;;;;;;17.69;96.05;101660.50;6183907;23;20004;-79
2021/09/11 07:27:06;;;;;;;32.05;17.42;;;;;;;17.83;95.44;101663.16;6184117;23;20099;-80
2021/09/11 07:29:32;;;;;;;33.90;17.40;;;;;;;17.86;94.76;101663.16;6184852;23;20389;-77
2021/09/11 07:31:57;;;;;;;32.45;18.00;;;;;;;17.83;95.09;101668.47;6185587;23;20001;-78
2021/09/11 07:34:23;;;;;;;34.85;18.23;;;;;;;17.85;94.81;101664.06;6184267;23;20059;-80
2021/09/11 07:36:48;;;;;;;42.67;19.13;;;;;;;17.89;94.49;101667.56;6183575;23;20000;-80
2021/09/11 07:39:15;;;;;;;26.60;16.85;;;;;;;17.94;93.58;101675.63;6184296;23;20054;-78
2021/09/11 07:42:00;;;;;;;31.55;17.35;;;;;;;17.91;94.25;101676.47;6184569;23;20083;-77
2021/09/11 07:44:26;;;;;;;37.75;18.13;;;;;;;17.90;94.69;101673.81;6183618;23;20019;-80
2021/09/11 07:46:51;;;;;;;30.20;17.00;;;;;;;17.96;94.72;101673.81;6184948;23;20037;-80
2021/09/11 07:49:17;;;;;;;24.75;16.95;;;;;;;18.04;93.83;101669.38;6184380;23;20001;-78
2021/09/11 07:51:42;;;;;;;35.88;18.60;;;;;;;18.04;93.75;101677.34;6157272;23;20043;-77
2021/09/11 07:54:08;;;;;;;33.80;17.83;;;;;;;18.08;94.16;101687.16;6158251;23;20032;-79
2021/09/11 07:56:36;;;;;;;32.67;18.13;;;;;;;18.09;93.78;101675.59;6185095;23;20001;-81
2021/09/11 07:59:01;;;;;;;30.85;17.80;;;;;;;18.23;93.87;101675.59;6186100;23;20009;-78
2021/09/11 08:01:26;;;;;;;32.92;17.90;;;;;;;18.39;92.96;101678.22;6180851;23;20078;-78
2021/09/11 08:03:52;;;;;;;26.08;17.85;;;;;;;18.55;91.83;101679.94;6185456;23;20009;-75
2021/09/11 08:06:17;;;;;;;27.52;16.52;;;;;;;18.70;90.58;101682.53;6182972;23;20032;-76
2021/09/11 08:08:42;;;;;;;35.88;17.90;;;;;;;18.71;90.32;101678.09;6185810;23;20008;-76
2021/09/11 08:11:08;;;;;;;29.17;16.92;;;;;;;18.68;89.79;101686.13;6184742;23;19998;-77
2021/09/11 08:13:34;;;;;;;36.97;19.15;;;;;;;18.56;90.80;101692.38;6185393;23;20008;-78
2021/09/11 08:15:59;;;;;;;30.00;17.40;;;;;;;18.60;90.91;101693.22;6185073;23;20008;-78
2021/09/11 08:18:25;;;;;;;36.25;18.17;;;;;;;18.71;90.82;101691.44;6184285;23;20009;-76
2021/09/11 08:21:10;;;;;;;34.92;18.17;;;;;;;18.88;90.08;101694.06;6184234;23;20329;-77
2021/09/11 08:23:36;;;;;;;40.35;19.50;;;;;;;19.05;89.88;101691.31;6184054;23;20021;-77
2021/09/11 08:26:21;;;;;;;34.75;17.75;;;;;;;19.28;88.38;101687.66;6184023;23;20327;-79
2021/09/11 08:28:48;;;;;;;25.85;16.05;;;;;;;19.62;86.96;101695.44;6185317;23;20005;-78
2021/09/11 08:31:34;;;;;;;32.03;16.73;;;;;;;19.97;84.73;101688.94;6184649;23;20464;-76
2021/09/11 08:34:01;;;;;;;26.60;16.80;;;;;;;20.23;84.29;101691.34;6184517;23;20005;-78
2021/09/11 08:36:46;;;;;;;22.48;14.13;;;;;;;20.47;82.28;101684.88;6184038;23;20031;-79
2021/09/11 08:39:32;;;;;;;29.73;14.88;;;;;;;20.43;82.92;101693.81;6185113;23;20044;-77
2021/09/11 08:42:13;;;;;;;26.38;14.95;;;;;;;20.31;82.43;101699.31;6186704;23;20001;-77
2021/09/11 08:44:38;;;;;;;21.45;14.10;;;;;;;20.17;83.02;101707.44;6183221;23;20017;-76
2021/09/11 08:47:21;;;;;;;25.05;14.18;;;;;;;19.85;84.11;101712.16;6183346;23;20033;-77
2021/09/11 08:49:46;;;;;;;23.42;13.75;;;;;;;19.83;85.25;101713.06;6183331;23;20009;-78
2021/09/11 08:52:13;;;;;;;27.63;14.88;;;;;;;19.69;84.90;101715.84;6183079;23;20496;-78
2021/09/11 08:54:38;;;;;;;23.45;13.40;;;;;;;19.73;85.48;101725.59;6184323;23;20012;-77
2021/09/11 08:57:22;;;;;;;22.00;14.18;;;;;;;19.82;84.81;101717.53;6184623;23;20009;-78
2021/09/11 08:59:47;;;;;;;30.30;15.13;;;;;;;19.90;84.47;101717.50;6184278;23;20012;-77
2021/09/11 09:02:14;;;;;;;18.95;13.18;;;;;;;20.04;84.38;101725.38;6178852;23;20005;-79
2021/09/11 09:05:06;;;;;;;27.30;13.70;;;;;;;20.28;83.34;101718.03;6183789;23;20001;-77
2021/09/11 09:07:40;;;;;;;24.23;12.60;;;;;;;20.51;82.13;101721.38;6183059;23;20036;-75
2021/09/11 09:10:08;;;;;;;17.27;11.95;;;;;;;20.70;81.57;101718.50;6182663;23;20025;-76
2021/09/11 09:12:38;;;;;;;20.70;11.52;;;;;;;20.88;82.26;101722.75;6183333;23;20005;-75
2021/09/11 09:15:11;;;;;;;20.08;11.68;;;;;;;20.87;80.69;101715.63;6182556;23;20013;-77
2021/09/11 09:17:55;;;;;;;20.38;11.35;;;;;;;20.67;80.82;101718.50;6183073;23;20005;-77
2021/09/11 09:20:41;;;;;;;18.02;10.80;;;;;;;20.70;81.83;101727.41;6156787;23;20008;-78
2021/09/11 09:23:07;;;;;;;17.30;10.32;;;;;;;20.60;81.51;101730.19;6184843;23;20016;-78
2021/09/11 09:25:37;;;;;;;15.50;10.18;;;;;;;20.62;82.03;101737.28;6186118;23;20433;-78
2021/09/11 09:28:06;;;;;;;18.38;10.93;;;;;;;20.51;82.13;101728.47;6186424;23;20008;-77
2021/09/11 09:31:01;;;;;;;20.25;11.05;;;;;;;20.44;81.97;101733.00;6184377;23;20005;-77
2021/09/11 09:33:29;;;;;;;21.00;13.27;;;;;;;20.28;83.01;101742.97;6153910;23;20013;-78
2021/09/11 09:35:59;;;;;;;17.23;10.73;;;;;;;20.47;82.33;101741.00;6160084;23;20005;-79
2021/09/11 09:38:25;;;;;;;15.35;10.57;;;;;;;20.60;82.22;101740.88;6184858;23;20420;-77
2021/09/11 09:40:52;;;;;;;18.42;11.55;;;;;;;20.54;82.29;101739.16;6179706;23;20005;-78
2021/09/11 09:44:09;;;;;;;20.10;11.65;;;;;;;20.70;81.99;101737.22;6181622;23;20039;-79
2021/09/11 09:46:43;;;;;;;21.13;13.23;;;;;;;20.80;81.10;101736.22;6155652;23;20108;-79
2021/09/11 09:49:10;;;;;;;19.00;12.48;;;;;;;20.85;81.40;101738.84;6184631;23;20004;-78
2021/09/11 09:51:36;;;;;;;16.13;11.35;;;;;;;20.94;81.31;101743.19;6185510;23;20009;-77
2021/09/11 09:54:22;;;;;;;17.58;10.65;;;;;;;21.05;80.97;101736.81;6185233;23;20417;-78
2021/09/11 09:56:47;;;;;;;18.52;10.57;;;;;;;20.98;80.13;101735.09;6179501;23;20087;-77
2021/09/11 09:59:35;;;;;;;16.73;11.63;;;;;;;20.85;81.24;101745.09;6181970;23;20004;-78
2021/09/11 10:02:00;;;;;;;13.57;11.20;;;;;;;21.01;81.05;101742.22;6174845;23;20004;-77
2021/09/11 10:04:25;;;;;;;19.38;11.20;;;;;;;21.00;80.90;101737.78;6182144;23;20005;-77
2021/09/11 10:07:01;;;;;;;14.48;10.50;;;;;;;20.93;81.67;101747.66;6183551;23;20428;-79
2021/09/11 10:09:28;;;;;;;13.10;9.57;;;;;;;20.98;81.60;101739.56;6181138;23;20017;-78
2021/09/11 10:11:54;;;;;;;14.35;10.52;;;;;;;21.02;81.17;101744.84;6182494;23;20016;-77
2021/09/11 10:14:22;;;;;;;15.23;10.68;;;;;;;21.06;79.95;101738.56;6155736;23;20024;-77
2021/09/11 10:17:31;;;;;;;15.93;10.13;;;;;;;21.14;79.54;101741.16;6181929;23;20079;-77
2021/09/11 10:20:16;;;;;;;19.10;10.93;;;;;;;20.98;80.51;101724.41;6179819;23;20083;-77
2021/09/11 10:23:22;;;;;;;14.32;9.27;;;;;;;20.93;80.60;101734.28;6181399;23;20021;-76
2021/09/11 10:26:07;;;;;;;12.90;9.45;;;;;;;20.92;81.11;101731.63;6180536;23;20017;-77
2021/09/11 10:28:33;;;;;;;16.70;10.38;;;;;;;20.91;81.97;101741.44;6182023;23;20020;-78
2021/09/11 10:31:27;;;;;;;18.33;11.68;;;;;;;20.28;84.99;101747.41;6184729;23;20001;-77
2021/09/11 10:33:58;;;;;;;19.98;13.13;;;;;;;19.87;87.99;101758.47;6183140;23;20017;-77
2021/09/11 10:36:47;;;;;;;18.70;12.57;;;;;;;19.65;89.35;101748.78;6184871;23;20014;-79
2021/09/11 10:39:13;;;;;;;18.85;12.07;;;;;;;19.49;90.39;101750.66;6183464;23;20395;-79
2021/09/11 10:41:38;;;;;;;17.98;11.63;;;;;;;19.49;90.79;101750.66;6183465;23;20005;-79
2021/09/11 10:44:07;;;;;;;17.83;11.10;;;;;;;19.51;90.83;101744.44;6181267;23;20008;-79
2021/09/11 10:46:58;;;;;;;19.30;13.02;;;;;;;19.47;91.33;101747.13;6183187;23;20016;-80
2021/09/11 10:49:47;;;;;;;22.30;12.85;;;;;;;19.50;92.27;101753.31;6172728;23;20033;-79
2021/09/11 10:52:12;;;;;;;14.15;9.93;;;;;;;19.74;90.33;101746.06;6180172;23;20017;-80
2021/09/11 10:54:39;;;;;;;22.23;11.88;;;;;;;19.82;89.34;101735.38;6182500;23;20310;-79
2021/09/11 10:57:13;;;;;;;17.60;12.27;;;;;;;20.01;90.61;101744.13;6182108;23;20017;-82
2021/09/11 10:59:45;;;;;;;17.40;10.13;;;;;;;20.40;88.35;101736.59;6183596;23;20009;-80
2021/09/11 11:02:36;;;;;;;14.77;9.80;;;;;;;20.65;87.00;101734.56;6152645;23;20009;-83
2021/09/11 11:05:22;;;;;;;15.02;9.73;;;;;;;20.67;85.84;101724.75;6183210;23;20009;-78
2021/09/11 11:07:50;;;;;;;11.95;9.25;;;;;;;20.55;85.50;101724.88;6181378;23;20038;-78
2021/09/11 11:10:35;;;;;;;13.25;9.07;;;;;;;20.26;86.52;101739.44;6183292;23;20001;-81
2021/09/11 11:13:02;;;;;;;18.10;9.13;;;;;;;19.94;88.41;101748.63;6181949;23;20463;-81
2021/09/11 11:15:28;;;;;;;13.07;8.48;;;;;;;19.44;90.38;101750.72;6183512;23;20009;-81
2021/09/11 11:18:44;;;;;;;12.85;7.72;;;;;;;19.26;91.75;101753.47;6183538;23;20432;-81
2021/09/11 11:24:55;;;;;;;14.35;9.90;;;;;;;19.53;93.08;101756.00;6100115;23;20085;-86
2021/09/11 11:28:01;;;;;;;16.67;8.98;;;;;;;19.71;92.55;101746.97;6027066;23;20346;-86